sensor_id;sensor_type;location;lat;lon;timestamp;temperature;humidity
24678;DHT22;12800;53.094;8.778;2023-01-10T00:01:30;8.10;89.10
24678;DHT22;12800;53.094;8.778;2023-01-10T00:03:55;8.20;89.30
24678;DHT22;12800;53.094;8.778;2023-01-10T00:06:21;8.10;89.20
24678;DHT22;12800;53.094;8.778;2023-01-10T00:08:47;8.10;89.10
24678;DHT22;12800;53.094;8.778;2023-01-10T00:11:13;8.10;89.10
24678;DHT22;12800;53.094;8.778;2023-01-10T00:13:57;8.10;89.80
24678;DHT22;12800;53.094;8.778;2023-01-10T00:16:23;8.00;89.00
24678;DHT22;12800;53.094;8.778;2023-01-10T00:18:49;8.10;89.10
24678;DHT22;12800;53.094;8.778;2023-01-10T00:21:15;8.00;89.00
24678;DHT22;12800;53.094;8.778;2023-01-10T00:23:41;8.00;89.10
24678;DHT22;12800;53.094;8.778;2023-01-10T00:26:07;8.00;89.10
24678;DHT22;12800;53.094;8.778;2023-01-10T00:28:33;8.00;89.10
24678;DHT22;12800;53.094;8.778;2023-01-10T00:31:00;8.00;89.10
24678;DHT22;12800;53.094;8.778;2023-01-10T00:33:30;8.00;89.20
24678;DHT22;12800;53.094;8.778;2023-01-10T00:36:06;8.10;89.30
24678;DHT22;12800;53.094;8.778;2023-01-10T00:38:33;8.10;89.30
24678;DHT22;12800;53.094;8.778;2023-01-10T00:40:59;8.10;89.30
24678;DHT22;12800;53.094;8.778;2023-01-10T00:43:25;8.10;89.30
24678;DHT22;12800;53.094;8.778;2023-01-10T00:46:09;8.10;89.20
24678;DHT22;12800;53.094;8.778;2023-01-10T00:48:35;8.10;89.20
24678;DHT22;12800;53.094;8.778;2023-01-10T00:51:01;8.10;89.10
24678;DHT22;12800;53.094;8.778;2023-01-10T00:53:27;8.10;89.10
24678;DHT22;12800;53.094;8.778;2023-01-10T00:55:53;8.10;89.10
24678;DHT22;12800;53.094;8.778;2023-01-10T00:58:19;8.10;89.00
24678;DHT22;12800;53.094;8.778;2023-01-10T01:00:45;8.10;89.90
24678;DHT22;12800;53.094;8.778;2023-01-10T01:03:11;8.10;89.10
24678;DHT22;12800;53.094;8.778;2023-01-10T01:05:45;8.10;89.10
24678;DHT22;12800;53.094;8.778;2023-01-10T01:08:12;8.10;88.90
24678;DHT22;12800;53.094;8.778;2023-01-10T01:10:38;8.10;88.90
24678;DHT22;12800;53.094;8.778;2023-01-10T01:13:12;8.10;89.00
24678;DHT22;12800;53.094;8.778;2023-01-10T01:15:38;8.10;88.90
24678;DHT22;12800;53.094;8.778;2023-01-10T01:18:04;8.10;88.90
24678;DHT22;12800;53.094;8.778;2023-01-10T01:20:31;8.10;89.10
24678;DHT22;12800;53.094;8.778;2023-01-10T01:22:57;8.10;89.20
24678;DHT22;12800;53.094;8.778;2023-01-10T01:25:22;8.10;89.10
24678;DHT22;12800;53.094;8.778;2023-01-10T01:27:48;8.10;89.20
24678;DHT22;12800;53.094;8.778;2023-01-10T01:30:14;8.10;89.30
24678;DHT22;12800;53.094;8.778;2023-01-10T01:32:40;8.20;89.40
24678;DHT22;12800;53.094;8.778;2023-01-10T01:35:07;8.20;89.40
24678;DHT22;12800;53.094;8.778;2023-01-10T01:37:33;8.20;89.20
24678;DHT22;12800;53.094;8.778;2023-01-10T01:39:59;8.20;89.10
24678;DHT22;12800;53.094;8.778;2023-01-10T01:42:32;8.20;89.10
24678;DHT22;12800;53.094;8.778;2023-01-10T01:47:40;8.20;89.20
24678;DHT22;12800;53.094;8.778;2023-01-10T01:52:44;8.20;89.00
24678;DHT22;12800;53.094;8.778;2023-01-10T01:55:10;8.20;89.00
24678;DHT22;12800;53.094;8.778;2023-01-10T01:57:36;8.20;88.90
24678;DHT22;12800;53.094;8.778;2023-01-10T02:00:04;8.20;88.80
24678;DHT22;12800;53.094;8.778;2023-01-10T02:02:41;8.20;88.80
24678;DHT22;12800;53.094;8.778;2023-01-10T02:05:10;8.20;88.70
24678;DHT22;12800;53.094;8.778;2023-01-10T02:07:40;8.20;88.80
24678;DHT22;12800;53.094;8.778;2023-01-10T02:12:38;8.20;88.80
24678;DHT22;12800;53.094;8.778;2023-01-10T02:15:04;8.20;88.90
24678;DHT22;12800;53.094;8.778;2023-01-10T02:17:30;8.20;88.80
24678;DHT22;12800;53.094;8.778;2023-01-10T02:20:05;8.20;88.70
24678;DHT22;12800;53.094;8.778;2023-01-10T02:31:35;8.20;88.40
24678;DHT22;12800;53.094;8.778;2023-01-10T02:34:17;8.20;88.50
24678;DHT22;12800;53.094;8.778;2023-01-10T02:37:03;8.10;88.40
24678;DHT22;12800;53.094;8.778;2023-01-10T02:42:07;8.10;88.40
24678;DHT22;12800;53.094;8.778;2023-01-10T02:44:44;8.20;88.50
24678;DHT22;12800;53.094;8.778;2023-01-10T02:47:13;8.10;88.40
24678;DHT22;12800;53.094;8.778;2023-01-10T02:49:46;8.10;88.40
24678;DHT22;12800;53.094;8.778;2023-01-10T02:52:16;8.20;88.50
24678;DHT22;12800;53.094;8.778;2023-01-10T02:54:43;8.20;88.40
24678;DHT22;12800;53.094;8.778;2023-01-10T03:03:12;8.10;88.10
24678;DHT22;12800;53.094;8.778;2023-01-10T03:05:58;8.10;88.90
24678;DHT22;12800;53.094;8.778;2023-01-10T03:11:07;8.00;88.30
24678;DHT22;12800;53.094;8.778;2023-01-10T03:13:46;8.00;88.30
24678;DHT22;12800;53.094;8.778;2023-01-10T03:16:19;8.00;89.00
24678;DHT22;12800;53.094;8.778;2023-01-10T03:21:26;8.00;88.30
24678;DHT22;12800;53.094;8.778;2023-01-10T03:23:55;8.00;88.30
24678;DHT22;12800;53.094;8.778;2023-01-10T03:26:51;7.90;88.30
24678;DHT22;12800;53.094;8.778;2023-01-10T03:29:24;7.90;88.30
24678;DHT22;12800;53.094;8.778;2023-01-10T03:31:59;7.90;88.30
24678;DHT22;12800;53.094;8.778;2023-01-10T03:34:26;7.90;88.40
24678;DHT22;12800;53.094;8.778;2023-01-10T03:36:58;7.90;88.40
24678;DHT22;12800;53.094;8.778;2023-01-10T03:42:09;7.90;88.50
24678;DHT22;12800;53.094;8.778;2023-01-10T03:47:32;7.90;88.50
24678;DHT22;12800;53.094;8.778;2023-01-10T03:50:06;7.90;88.50
24678;DHT22;12800;53.094;8.778;2023-01-10T03:52:34;7.90;89.30
24678;DHT22;12800;53.094;8.778;2023-01-10T03:55:00;7.90;88.50
24678;DHT22;12800;53.094;8.778;2023-01-10T03:57:27;7.90;88.60
24678;DHT22;12800;53.094;8.778;2023-01-10T03:59:55;7.80;88.50
24678;DHT22;12800;53.094;8.778;2023-01-10T04:02:29;7.80;88.50
24678;DHT22;12800;53.094;8.778;2023-01-10T04:04:55;7.80;88.50
24678;DHT22;12800;53.094;8.778;2023-01-10T04:07:21;7.80;88.50
24678;DHT22;12800;53.094;8.778;2023-01-10T04:09:47;7.80;88.70
24678;DHT22;12800;53.094;8.778;2023-01-10T04:12:13;7.70;88.60
24678;DHT22;12800;53.094;8.778;2023-01-10T04:14:38;7.70;88.60
24678;DHT22;12800;53.094;8.778;2023-01-10T04:17:04;7.70;88.60
24678;DHT22;12800;53.094;8.778;2023-01-10T04:19:30;7.70;88.70
24678;DHT22;12800;53.094;8.778;2023-01-10T04:21:56;7.70;88.70
24678;DHT22;12800;53.094;8.778;2023-01-10T04:24:21;7.70;88.80
24678;DHT22;12800;53.094;8.778;2023-01-10T04:26:47;7.70;88.90
24678;DHT22;12800;53.094;8.778;2023-01-10T04:29:13;7.80;89.10
24678;DHT22;12800;53.094;8.778;2023-01-10T04:31:38;7.80;89.00
24678;DHT22;12800;53.094;8.778;2023-01-10T04:34:05;7.80;89.00
24678;DHT22;12800;53.094;8.778;2023-01-10T04:36:31;7.80;89.00
24678;DHT22;12800;53.094;8.778;2023-01-10T04:38:57;7.90;89.00
24678;DHT22;12800;53.094;8.778;2023-01-10T04:41:23;7.90;89.00
24678;DHT22;12800;53.094;8.778;2023-01-10T04:43:49;7.90;88.80
24678;DHT22;12800;53.094;8.778;2023-01-10T04:46:15;7.90;88.80
24678;DHT22;12800;53.094;8.778;2023-01-10T04:48:40;7.90;88.70
24678;DHT22;12800;53.094;8.778;2023-01-10T04:51:06;7.90;88.70
24678;DHT22;12800;53.094;8.778;2023-01-10T04:53:32;7.80;88.60
24678;DHT22;12800;53.094;8.778;2023-01-10T04:56:08;7.80;88.60
24678;DHT22;12800;53.094;8.778;2023-01-10T04:58:37;7.80;88.50
24678;DHT22;12800;53.094;8.778;2023-01-10T05:01:10;7.80;88.60
24678;DHT22;12800;53.094;8.778;2023-01-10T05:03:36;7.80;88.60
24678;DHT22;12800;53.094;8.778;2023-01-10T05:06:03;7.70;88.50
24678;DHT22;12800;53.094;8.778;2023-01-10T05:08:28;7.70;88.50
24678;DHT22;12800;53.094;8.778;2023-01-10T05:10:54;7.70;88.50
24678;DHT22;12800;53.094;8.778;2023-01-10T05:13:19;7.70;88.40
24678;DHT22;12800;53.094;8.778;2023-01-10T05:15:45;7.70;88.50
24678;DHT22;12800;53.094;8.778;2023-01-10T05:18:10;7.70;88.50
24678;DHT22;12800;53.094;8.778;2023-01-10T05:20:36;7.70;88.40
24678;DHT22;12800;53.094;8.778;2023-01-10T05:23:02;7.70;88.30
24678;DHT22;12800;53.094;8.778;2023-01-10T05:25:27;7.60;88.40
24678;DHT22;12800;53.094;8.778;2023-01-10T05:27:53;7.60;88.40
24678;DHT22;12800;53.094;8.778;2023-01-10T05:30:19;7.60;88.40
24678;DHT22;12800;53.094;8.778;2023-01-10T05:32:45;7.70;88.40
24678;DHT22;12800;53.094;8.778;2023-01-10T05:35:11;7.70;88.40
24678;DHT22;12800;53.094;8.778;2023-01-10T05:37:37;7.70;88.40
24678;DHT22;12800;53.094;8.778;2023-01-10T05:40:03;7.70;88.40
24678;DHT22;12800;53.094;8.778;2023-01-10T05:42:28;7.70;88.40
24678;DHT22;12800;53.094;8.778;2023-01-10T05:44:54;7.70;88.30
24678;DHT22;12800;53.094;8.778;2023-01-10T05:47:19;7.70;88.30
24678;DHT22;12800;53.094;8.778;2023-01-10T05:49:45;7.70;88.30
24678;DHT22;12800;53.094;8.778;2023-01-10T05:52:11;7.70;88.30
24678;DHT22;12800;53.094;8.778;2023-01-10T05:54:36;7.70;88.20
24678;DHT22;12800;53.094;8.778;2023-01-10T05:57:02;7.70;88.20
24678;DHT22;12800;53.094;8.778;2023-01-10T05:59:28;7.70;88.30
24678;DHT22;12800;53.094;8.778;2023-01-10T06:01:53;7.70;88.30
24678;DHT22;12800;53.094;8.778;2023-01-10T06:04:19;7.70;88.20
24678;DHT22;12800;53.094;8.778;2023-01-10T06:06:45;7.70;88.20
24678;DHT22;12800;53.094;8.778;2023-01-10T06:09:10;7.70;88.20
24678;DHT22;12800;53.094;8.778;2023-01-10T06:11:36;7.70;88.20
24678;DHT22;12800;53.094;8.778;2023-01-10T06:14:03;7.80;88.10
24678;DHT22;12800;53.094;8.778;2023-01-10T06:16:30;7.80;88.20
24678;DHT22;12800;53.094;8.778;2023-01-10T06:18:55;7.80;88.20
24678;DHT22;12800;53.094;8.778;2023-01-10T06:21:21;7.80;88.20
24678;DHT22;12800;53.094;8.778;2023-01-10T06:23:47;7.80;88.20
24678;DHT22;12800;53.094;8.778;2023-01-10T06:26:12;7.80;88.10
24678;DHT22;12800;53.094;8.778;2023-01-10T06:28:38;7.80;88.10
24678;DHT22;12800;53.094;8.778;2023-01-10T06:31:06;7.90;88.10
24678;DHT22;12800;53.094;8.778;2023-01-10T06:33:32;7.90;88.10
24678;DHT22;12800;53.094;8.778;2023-01-10T06:35:57;7.90;88.00
24678;DHT22;12800;53.094;8.778;2023-01-10T06:38:23;7.90;88.00
24678;DHT22;12800;53.094;8.778;2023-01-10T06:40:49;7.90;87.90
24678;DHT22;12800;53.094;8.778;2023-01-10T06:43:14;7.90;87.90
24678;DHT22;12800;53.094;8.778;2023-01-10T06:45:40;7.90;87.90
24678;DHT22;12800;53.094;8.778;2023-01-10T06:48:05;8.00;87.90
24678;DHT22;12800;53.094;8.778;2023-01-10T06:50:31;8.00;87.80
24678;DHT22;12800;53.094;8.778;2023-01-10T06:52:58;8.00;87.90
24678;DHT22;12800;53.094;8.778;2023-01-10T06:55:25;8.00;87.90
24678;DHT22;12800;53.094;8.778;2023-01-10T06:57:58;8.00;87.80
24678;DHT22;12800;53.094;8.778;2023-01-10T07:00:24;8.00;87.70
24678;DHT22;12800;53.094;8.778;2023-01-10T07:02:52;8.00;87.60
24678;DHT22;12800;53.094;8.778;2023-01-10T07:05:19;8.00;87.60
24678;DHT22;12800;53.094;8.778;2023-01-10T07:07:44;8.00;87.70
24678;DHT22;12800;53.094;8.778;2023-01-10T07:10:10;8.00;87.70
24678;DHT22;12800;53.094;8.778;2023-01-10T07:12:36;8.00;87.60
24678;DHT22;12800;53.094;8.778;2023-01-10T07:15:02;8.00;87.60
24678;DHT22;12800;53.094;8.778;2023-01-10T07:17:28;8.00;87.50
24678;DHT22;12800;53.094;8.778;2023-01-10T07:19:54;8.00;87.60
24678;DHT22;12800;53.094;8.778;2023-01-10T07:22:20;8.00;87.50
24678;DHT22;12800;53.094;8.778;2023-01-10T07:24:45;8.00;87.50
24678;DHT22;12800;53.094;8.778;2023-01-10T07:27:11;8.00;87.40
24678;DHT22;12800;53.094;8.778;2023-01-10T07:29:37;8.00;87.40
24678;DHT22;12800;53.094;8.778;2023-01-10T07:32:02;7.90;87.30
24678;DHT22;12800;53.094;8.778;2023-01-10T07:34:28;7.90;87.30
24678;DHT22;12800;53.094;8.778;2023-01-10T07:36:53;7.90;87.30
24678;DHT22;12800;53.094;8.778;2023-01-10T07:39:19;7.90;87.40
24678;DHT22;12800;53.094;8.778;2023-01-10T07:41:48;7.80;87.30
24678;DHT22;12800;53.094;8.778;2023-01-10T07:44:14;7.80;87.40
24678;DHT22;12800;53.094;8.778;2023-01-10T07:46:40;7.80;87.40
24678;DHT22;12800;53.094;8.778;2023-01-10T07:49:06;7.80;87.50
24678;DHT22;12800;53.094;8.778;2023-01-10T07:51:32;7.80;87.40
24678;DHT22;12800;53.094;8.778;2023-01-10T07:53:58;7.80;87.40
24678;DHT22;12800;53.094;8.778;2023-01-10T07:56:24;7.80;87.50
24678;DHT22;12800;53.094;8.778;2023-01-10T07:58:50;7.80;87.60
24678;DHT22;12800;53.094;8.778;2023-01-10T08:01:15;7.80;87.60
24678;DHT22;12800;53.094;8.778;2023-01-10T08:03:41;7.80;87.70
24678;DHT22;12800;53.094;8.778;2023-01-10T08:06:08;7.80;87.80
24678;DHT22;12800;53.094;8.778;2023-01-10T08:08:36;7.90;87.70
24678;DHT22;12800;53.094;8.778;2023-01-10T08:11:02;7.90;87.80
24678;DHT22;12800;53.094;8.778;2023-01-10T08:13:28;7.90;87.70
24678;DHT22;12800;53.094;8.778;2023-01-10T08:15:54;7.90;87.70
24678;DHT22;12800;53.094;8.778;2023-01-10T08:18:21;8.00;87.70
24678;DHT22;12800;53.094;8.778;2023-01-10T08:20:51;8.00;87.60
24678;DHT22;12800;53.094;8.778;2023-01-10T08:23:17;8.00;87.60
24678;DHT22;12800;53.094;8.778;2023-01-10T08:25:44;8.00;87.50
24678;DHT22;12800;53.094;8.778;2023-01-10T08:28:10;8.10;87.60
24678;DHT22;12800;53.094;8.778;2023-01-10T08:30:36;8.10;87.50
24678;DHT22;12800;53.094;8.778;2023-01-10T08:33:03;8.10;87.40
24678;DHT22;12800;53.094;8.778;2023-01-10T08:35:29;8.10;87.30
24678;DHT22;12800;53.094;8.778;2023-01-10T08:37:59;8.10;87.30
24678;DHT22;12800;53.094;8.778;2023-01-10T08:40:25;8.00;87.30
24678;DHT22;12800;53.094;8.778;2023-01-10T08:42:58;8.10;87.30
24678;DHT22;12800;53.094;8.778;2023-01-10T08:45:24;8.00;87.30
24678;DHT22;12800;53.094;8.778;2023-01-10T08:47:49;8.00;87.30
24678;DHT22;12800;53.094;8.778;2023-01-10T08:50:15;8.00;87.40
24678;DHT22;12800;53.094;8.778;2023-01-10T08:52:41;8.10;87.40
24678;DHT22;12800;53.094;8.778;2023-01-10T08:55:06;8.10;87.50
24678;DHT22;12800;53.094;8.778;2023-01-10T08:57:32;8.20;87.60
24678;DHT22;12800;53.094;8.778;2023-01-10T08:59:58;8.20;87.50
24678;DHT22;12800;53.094;8.778;2023-01-10T09:02:23;8.20;87.50
24678;DHT22;12800;53.094;8.778;2023-01-10T09:04:49;8.30;87.50
24678;DHT22;12800;53.094;8.778;2023-01-10T09:07:15;8.30;87.40
24678;DHT22;12800;53.094;8.778;2023-01-10T09:09:40;8.40;87.20
24678;DHT22;12800;53.094;8.778;2023-01-10T09:12:06;8.40;87.20
24678;DHT22;12800;53.094;8.778;2023-01-10T09:14:52;8.40;87.10
24678;DHT22;12800;53.094;8.778;2023-01-10T09:17:17;8.40;87.10
24678;DHT22;12800;53.094;8.778;2023-01-10T09:19:43;8.40;87.10
24678;DHT22;12800;53.094;8.778;2023-01-10T09:22:09;8.40;87.20
24678;DHT22;12800;53.094;8.778;2023-01-10T09:24:35;8.40;87.20
24678;DHT22;12800;53.094;8.778;2023-01-10T09:27:04;8.50;87.20
24678;DHT22;12800;53.094;8.778;2023-01-10T09:29:29;8.50;87.20
24678;DHT22;12800;53.094;8.778;2023-01-10T09:31:55;8.50;87.20
24678;DHT22;12800;53.094;8.778;2023-01-10T09:34:20;8.60;87.10
24678;DHT22;12800;53.094;8.778;2023-01-10T09:36:47;8.60;87.10
24678;DHT22;12800;53.094;8.778;2023-01-10T09:39:12;8.60;87.70
24678;DHT22;12800;53.094;8.778;2023-01-10T09:47:04;8.60;87.90
24678;DHT22;12800;53.094;8.778;2023-01-10T09:49:59;8.60;88.00
24678;DHT22;12800;53.094;8.778;2023-01-10T09:52:39;8.70;87.20
24678;DHT22;12800;53.094;8.778;2023-01-10T09:55:27;8.70;87.40
24678;DHT22;12800;53.094;8.778;2023-01-10T09:57:57;8.70;88.30
24678;DHT22;12800;53.094;8.778;2023-01-10T10:00:55;8.70;87.40
24678;DHT22;12800;53.094;8.778;2023-01-10T10:03:40;8.80;87.30
24678;DHT22;12800;53.094;8.778;2023-01-10T10:06:12;8.70;87.20
24678;DHT22;12800;53.094;8.778;2023-01-10T10:08:44;8.80;87.40
24678;DHT22;12800;53.094;8.778;2023-01-10T10:19:28;8.90;87.10
24678;DHT22;12800;53.094;8.778;2023-01-10T10:22:21;8.90;87.20
24678;DHT22;12800;53.094;8.778;2023-01-10T10:36:05;9.00;87.00
24678;DHT22;12800;53.094;8.778;2023-01-10T10:38:37;9.00;86.90
24678;DHT22;12800;53.094;8.778;2023-01-10T10:41:04;9.00;86.70
24678;DHT22;12800;53.094;8.778;2023-01-10T10:43:38;9.00;86.70
24678;DHT22;12800;53.094;8.778;2023-01-10T10:46:10;9.00;86.70
24678;DHT22;12800;53.094;8.778;2023-01-10T10:48:50;9.00;86.70
24678;DHT22;12800;53.094;8.778;2023-01-10T10:54:01;9.00;86.80
24678;DHT22;12800;53.094;8.778;2023-01-10T10:56:28;9.10;86.80
24678;DHT22;12800;53.094;8.778;2023-01-10T10:58:56;9.10;86.60
24678;DHT22;12800;53.094;8.778;2023-01-10T11:01:23;9.10;86.50
24678;DHT22;12800;53.094;8.778;2023-01-10T11:03:51;9.10;86.50
24678;DHT22;12800;53.094;8.778;2023-01-10T11:06:19;9.10;86.40
24678;DHT22;12800;53.094;8.778;2023-01-10T11:08:46;9.20;86.40
24678;DHT22;12800;53.094;8.778;2023-01-10T11:11:29;9.20;86.30
24678;DHT22;12800;53.094;8.778;2023-01-10T11:13:59;9.20;86.20
24678;DHT22;12800;53.094;8.778;2023-01-10T11:16:31;9.20;86.10
24678;DHT22;12800;53.094;8.778;2023-01-10T11:26:48;9.40;85.80
24678;DHT22;12800;53.094;8.778;2023-01-10T11:29:38;9.40;85.90
24678;DHT22;12800;53.094;8.778;2023-01-10T11:32:13;9.50;85.70
24678;DHT22;12800;53.094;8.778;2023-01-10T11:34:41;9.60;85.80
24678;DHT22;12800;53.094;8.778;2023-01-10T11:37:17;9.60;85.60
24678;DHT22;12800;53.094;8.778;2023-01-10T11:39:43;9.70;85.60
24678;DHT22;12800;53.094;8.778;2023-01-10T11:42:38;9.80;85.30
24678;DHT22;12800;53.094;8.778;2023-01-10T11:45:32;10.00;85.10
24678;DHT22;12800;53.094;8.778;2023-01-10T11:50:33;10.00;84.10
24678;DHT22;12800;53.094;8.778;2023-01-10T11:52:59;10.00;84.00
24678;DHT22;12800;53.094;8.778;2023-01-10T11:55:30;9.90;83.80
24678;DHT22;12800;53.094;8.778;2023-01-10T11:58:06;9.90;83.90
24678;DHT22;12800;53.094;8.778;2023-01-10T12:00:44;9.90;83.80
24678;DHT22;12800;53.094;8.778;2023-01-10T12:03:26;9.90;83.70
24678;DHT22;12800;53.094;8.778;2023-01-10T12:06:05;9.90;83.60
24678;DHT22;12800;53.094;8.778;2023-01-10T12:08:36;9.90;83.60
24678;DHT22;12800;53.094;8.778;2023-01-10T12:13:48;9.80;83.60
24678;DHT22;12800;53.094;8.778;2023-01-10T12:18:40;9.80;83.30
24678;DHT22;12800;53.094;8.778;2023-01-10T12:21:07;9.80;83.30
24678;DHT22;12800;53.094;8.778;2023-01-10T12:23:35;9.80;83.30
24678;DHT22;12800;53.094;8.778;2023-01-10T12:26:07;9.80;83.20
24678;DHT22;12800;53.094;8.778;2023-01-10T12:28:34;9.70;83.20
24678;DHT22;12800;53.094;8.778;2023-01-10T12:31:01;9.70;83.20
24678;DHT22;12800;53.094;8.778;2023-01-10T12:33:35;9.70;83.10
24678;DHT22;12800;53.094;8.778;2023-01-10T12:40:08;9.70;83.00
24678;DHT22;12800;53.094;8.778;2023-01-10T12:45:15;9.70;83.00
24678;DHT22;12800;53.094;8.778;2023-01-10T12:47:58;9.70;82.90
24678;DHT22;12800;53.094;8.778;2023-01-10T12:53:23;9.70;82.90
24678;DHT22;12800;53.094;8.778;2023-01-10T12:55:52;9.70;82.80
24678;DHT22;12800;53.094;8.778;2023-01-10T12:58:21;9.70;82.70
24678;DHT22;12800;53.094;8.778;2023-01-10T13:00:53;9.60;83.50
24678;DHT22;12800;53.094;8.778;2023-01-10T13:03:24;9.70;82.80
24678;DHT22;12800;53.094;8.778;2023-01-10T13:05:51;9.70;82.80
24678;DHT22;12800;53.094;8.778;2023-01-10T13:08:21;9.70;82.80
24678;DHT22;12800;53.094;8.778;2023-01-10T13:10:51;9.70;82.70
24678;DHT22;12800;53.094;8.778;2023-01-10T13:16:19;9.70;82.70
24678;DHT22;12800;53.094;8.778;2023-01-10T13:21:38;9.70;82.60
24678;DHT22;12800;53.094;8.778;2023-01-10T13:24:24;9.70;82.70
24678;DHT22;12800;53.094;8.778;2023-01-10T13:26:58;9.70;83.60
24678;DHT22;12800;53.094;8.778;2023-01-10T13:29:37;9.60;82.70
24678;DHT22;12800;53.094;8.778;2023-01-10T13:32:27;9.70;82.80
24678;DHT22;12800;53.094;8.778;2023-01-10T13:34:54;9.70;82.80
24678;DHT22;12800;53.094;8.778;2023-01-10T13:37:24;9.70;82.60
24678;DHT22;12800;53.094;8.778;2023-01-10T13:39:58;9.70;82.70
24678;DHT22;12800;53.094;8.778;2023-01-10T13:42:30;9.60;82.70
24678;DHT22;12800;53.094;8.778;2023-01-10T13:45:15;9.60;82.60
24678;DHT22;12800;53.094;8.778;2023-01-10T14:11:22;9.50;82.10
24678;DHT22;12800;53.094;8.778;2023-01-10T14:13:57;9.50;82.00
24678;DHT22;12800;53.094;8.778;2023-01-10T14:16:33;9.40;82.10
24678;DHT22;12800;53.094;8.778;2023-01-10T14:19:02;9.40;82.20
24678;DHT22;12800;53.094;8.778;2023-01-10T14:21:30;9.40;82.20
24678;DHT22;12800;53.094;8.778;2023-01-10T14:23:59;9.40;82.30
24678;DHT22;12800;53.094;8.778;2023-01-10T14:26:34;9.40;82.30
24678;DHT22;12800;53.094;8.778;2023-01-10T14:29:06;9.40;82.20
24678;DHT22;12800;53.094;8.778;2023-01-10T14:31:33;9.30;82.20
24678;DHT22;12800;53.094;8.778;2023-01-10T14:34:01;9.30;82.40
24678;DHT22;12800;53.094;8.778;2023-01-10T14:36:32;9.30;82.40
24678;DHT22;12800;53.094;8.778;2023-01-10T14:39:04;9.30;82.30
24678;DHT22;12800;53.094;8.778;2023-01-10T14:41:41;9.30;82.20
24678;DHT22;12800;53.094;8.778;2023-01-10T14:44:16;9.20;82.30
24678;DHT22;12800;53.094;8.778;2023-01-10T14:49:19;9.20;82.30
24678;DHT22;12800;53.094;8.778;2023-01-10T14:51:44;9.20;82.40
24678;DHT22;12800;53.094;8.778;2023-01-10T14:54:15;9.20;82.40
24678;DHT22;12800;53.094;8.778;2023-01-10T14:56:50;9.10;82.30
24678;DHT22;12800;53.094;8.778;2023-01-10T15:01:42;9.10;82.40
24678;DHT22;12800;53.094;8.778;2023-01-10T15:04:15;9.10;82.40
24678;DHT22;12800;53.094;8.778;2023-01-10T15:06:59;9.10;82.40
24678;DHT22;12800;53.094;8.778;2023-01-10T15:09:28;9.10;82.40
24678;DHT22;12800;53.094;8.778;2023-01-10T15:11:56;9.10;82.50
24678;DHT22;12800;53.094;8.778;2023-01-10T15:14:24;9.00;82.50
24678;DHT22;12800;53.094;8.778;2023-01-10T15:16:54;9.00;82.50
24678;DHT22;12800;53.094;8.778;2023-01-10T15:19:22;9.00;82.60
24678;DHT22;12800;53.094;8.778;2023-01-10T15:21:49;8.90;82.50
24678;DHT22;12800;53.094;8.778;2023-01-10T15:24:35;8.90;82.60
24678;DHT22;12800;53.094;8.778;2023-01-10T15:27:03;8.90;82.60
24678;DHT22;12800;53.094;8.778;2023-01-10T15:29:30;8.80;82.70
24678;DHT22;12800;53.094;8.778;2023-01-10T15:32:11;8.80;82.70
24678;DHT22;12800;53.094;8.778;2023-01-10T15:34:38;8.80;82.90
24678;DHT22;12800;53.094;8.778;2023-01-10T15:37:15;8.80;83.00
24678;DHT22;12800;53.094;8.778;2023-01-10T15:39:45;8.80;83.00
24678;DHT22;12800;53.094;8.778;2023-01-10T15:42:12;8.80;83.00
24678;DHT22;12800;53.094;8.778;2023-01-10T15:44:45;8.70;82.80
24678;DHT22;12800;53.094;8.778;2023-01-10T15:47:49;8.70;82.90
24678;DHT22;12800;53.094;8.778;2023-01-10T15:52:57;8.70;82.90
24678;DHT22;12800;53.094;8.778;2023-01-10T15:58:21;8.70;83.00
24678;DHT22;12800;53.094;8.778;2023-01-10T16:00:51;8.70;83.00
24678;DHT22;12800;53.094;8.778;2023-01-10T16:03:21;8.70;83.10
24678;DHT22;12800;53.094;8.778;2023-01-10T16:05:52;8.70;83.00
24678;DHT22;12800;53.094;8.778;2023-01-10T16:08:22;8.70;83.00
24678;DHT22;12800;53.094;8.778;2023-01-10T16:11:00;8.70;82.90
24678;DHT22;12800;53.094;8.778;2023-01-10T16:13:26;8.70;82.80
24678;DHT22;12800;53.094;8.778;2023-01-10T16:15:56;8.70;82.80
24678;DHT22;12800;53.094;8.778;2023-01-10T16:18:22;8.70;82.80
24678;DHT22;12800;53.094;8.778;2023-01-10T16:20:50;8.70;82.80
24678;DHT22;12800;53.094;8.778;2023-01-10T16:23:19;8.70;83.50
24678;DHT22;12800;53.094;8.778;2023-01-10T16:25:49;8.70;82.70
24678;DHT22;12800;53.094;8.778;2023-01-10T16:28:17;8.70;82.60
24678;DHT22;12800;53.094;8.778;2023-01-10T16:30:44;8.70;82.60
24678;DHT22;12800;53.094;8.778;2023-01-10T16:33:29;8.70;83.30
24678;DHT22;12800;53.094;8.778;2023-01-10T16:35:56;8.70;82.50
24678;DHT22;12800;53.094;8.778;2023-01-10T16:38:24;8.70;82.50
24678;DHT22;12800;53.094;8.778;2023-01-10T16:41:00;8.70;82.60
24678;DHT22;12800;53.094;8.778;2023-01-10T16:43:48;8.60;82.60
24678;DHT22;12800;53.094;8.778;2023-01-10T16:46:13;8.60;82.50
24678;DHT22;12800;53.094;8.778;2023-01-10T16:48:39;8.60;82.70
24678;DHT22;12800;53.094;8.778;2023-01-10T16:51:17;8.60;82.50
24678;DHT22;12800;53.094;8.778;2023-01-10T16:53:44;8.60;82.60
24678;DHT22;12800;53.094;8.778;2023-01-10T16:56:12;8.60;82.50
24678;DHT22;12800;53.094;8.778;2023-01-10T16:58:38;8.60;82.50
24678;DHT22;12800;53.094;8.778;2023-01-10T17:01:04;8.60;82.50
24678;DHT22;12800;53.094;8.778;2023-01-10T17:03:34;8.60;82.40
24678;DHT22;12800;53.094;8.778;2023-01-10T17:06:04;8.60;83.10
24678;DHT22;12800;53.094;8.778;2023-01-10T17:08:30;8.60;82.30
24678;DHT22;12800;53.094;8.778;2023-01-10T17:10:59;8.60;82.20
24678;DHT22;12800;53.094;8.778;2023-01-10T17:13:33;8.70;82.20
24678;DHT22;12800;53.094;8.778;2023-01-10T17:16:00;8.70;82.00
24678;DHT22;12800;53.094;8.778;2023-01-10T17:18:26;8.70;82.80
24678;DHT22;12800;53.094;8.778;2023-01-10T17:20:56;8.70;82.00
24678;DHT22;12800;53.094;8.778;2023-01-10T17:23:23;8.70;81.90
24678;DHT22;12800;53.094;8.778;2023-01-10T17:25:56;8.70;81.90
24678;DHT22;12800;53.094;8.778;2023-01-10T17:28:22;8.70;81.70
24678;DHT22;12800;53.094;8.778;2023-01-10T17:30:47;8.70;81.70
24678;DHT22;12800;53.094;8.778;2023-01-10T17:33:13;8.70;81.70
24678;DHT22;12800;53.094;8.778;2023-01-10T17:35:39;8.70;81.60
24678;DHT22;12800;53.094;8.778;2023-01-10T17:38:05;8.70;81.40
24678;DHT22;12800;53.094;8.778;2023-01-10T17:40:32;8.70;81.40
24678;DHT22;12800;53.094;8.778;2023-01-10T17:42:58;8.80;81.80
24678;DHT22;12800;53.094;8.778;2023-01-10T17:45:23;8.80;81.30
24678;DHT22;12800;53.094;8.778;2023-01-10T17:47:49;8.80;81.20
24678;DHT22;12800;53.094;8.778;2023-01-10T17:50:17;8.80;81.10
24678;DHT22;12800;53.094;8.778;2023-01-10T17:52:43;8.80;81.00
24678;DHT22;12800;53.094;8.778;2023-01-10T17:55:08;8.80;80.90
24678;DHT22;12800;53.094;8.778;2023-01-10T17:57:34;8.80;80.80
24678;DHT22;12800;53.094;8.778;2023-01-10T18:00:04;8.80;80.80
24678;DHT22;12800;53.094;8.778;2023-01-10T18:02:29;8.80;80.80
24678;DHT22;12800;53.094;8.778;2023-01-10T18:04:55;8.80;80.70
24678;DHT22;12800;53.094;8.778;2023-01-10T18:07:20;8.80;80.80